sensor_id;sensor_type;location;lat;lon;timestamp;P1;durP1;ratioP1;P2;durP2;ratioP2
24157;SDS011;12316;50.904;4.200;2023-05-18T00:02:22;15.23;;;5.22;;
24157;SDS011;12316;50.904;4.200;2023-05-18T00:04:50;20.17;;;5.35;;
24157;SDS011;12316;50.904;4.200;2023-05-18T00:07:16;18.95;;;5.50;;
24157;SDS011;12316;50.904;4.200;2023-05-18T00:09:41;18.05;;;5.30;;
24157;SDS011;12316;50.904;4.200;2023-05-18T00:12:07;16.40;;;5.40;;
24157;SDS011;12316;50.904;4.200;2023-05-18T00:14:36;16.73;;;5.32;;
24157;SDS011;12316;50.904;4.200;2023-05-18T00:17:02;15.68;;;5.38;;
24157;SDS011;12316;50.904;4.200;2023-05-18T00:19:28;13.55;;;5.20;;
24157;SDS011;12316;50.904;4.200;2023-05-18T00:21:54;16.13;;;5.15;;
24157;SDS011;12316;50.904;4.200;2023-05-18T00:24:21;16.75;;;4.68;;
24157;SDS011;12316;50.904;4.200;2023-05-18T00:26:47;18.25;;;5.40;;
24157;SDS011;12316;50.904;4.200;2023-05-18T00:29:15;13.73;;;4.80;;
24157;SDS011;12316;50.904;4.200;2023-05-18T00:31:41;17.30;;;4.82;;
24157;SDS011;12316;50.904;4.200;2023-05-18T00:34:09;14.73;;;5.55;;
24157;SDS011;12316;50.904;4.200;2023-05-18T00:36:36;16.17;;;5.20;;
24157;SDS011;12316;50.904;4.200;2023-05-18T00:39:03;14.07;;;5.18;;
24157;SDS011;12316;50.904;4.200;2023-05-18T00:41:30;20.60;;;5.53;;
24157;SDS011;12316;50.904;4.200;2023-05-18T00:43:56;13.15;;;4.82;;
24157;SDS011;12316;50.904;4.200;2023-05-18T00:46:23;11.93;;;4.75;;
24157;SDS011;12316;50.904;4.200;2023-05-18T00:48:50;15.27;;;4.78;;
24157;SDS011;12316;50.904;4.200;2023-05-18T00:51:20;17.40;;;4.97;;
24157;SDS011;12316;50.904;4.200;2023-05-18T00:53:50;17.27;;;4.75;;
24157;SDS011;12316;50.904;4.200;2023-05-18T00:56:18;10.57;;;4.45;;
24157;SDS011;12316;50.904;4.200;2023-05-18T00:58:47;16.38;;;4.93;;
24157;SDS011;12316;50.904;4.200;2023-05-18T01:01:16;13.50;;;4.80;;
24157;SDS011;12316;50.904;4.200;2023-05-18T01:03:43;12.68;;;4.68;;
24157;SDS011;12316;50.904;4.200;2023-05-18T01:06:09;20.30;;;5.65;;
24157;SDS011;12316;50.904;4.200;2023-05-18T01:08:36;17.98;;;4.80;;
24157;SDS011;12316;50.904;4.200;2023-05-18T01:13:55;21.08;;;4.32;;
24157;SDS011;12316;50.904;4.200;2023-05-18T01:16:27;15.45;;;4.25;;
24157;SDS011;12316;50.904;4.200;2023-05-18T01:24:48;14.38;;;4.40;;
24157;SDS011;12316;50.904;4.200;2023-05-18T01:27:20;12.10;;;4.20;;
24157;SDS011;12316;50.904;4.200;2023-05-18T01:29:50;10.70;;;4.05;;
24157;SDS011;12316;50.904;4.200;2023-05-18T01:32:17;14.80;;;4.28;;
24157;SDS011;12316;50.904;4.200;2023-05-18T01:34:46;13.38;;;4.28;;
24157;SDS011;12316;50.904;4.200;2023-05-18T01:37:12;11.45;;;4.32;;
24157;SDS011;12316;50.904;4.200;2023-05-18T01:39:38;10.65;;;4.30;;
24157;SDS011;12316;50.904;4.200;2023-05-18T01:42:10;11.63;;;4.03;;
24157;SDS011;12316;50.904;4.200;2023-05-18T01:44:46;12.43;;;4.10;;
24157;SDS011;12316;50.904;4.200;2023-05-18T01:47:17;12.95;;;4.50;;
24157;SDS011;12316;50.904;4.200;2023-05-18T01:52:18;11.27;;;4.50;;
24157;SDS011;12316;50.904;4.200;2023-05-18T01:54:49;14.32;;;4.32;;
24157;SDS011;12316;50.904;4.200;2023-05-18T01:57:19;14.20;;;4.55;;
24157;SDS011;12316;50.904;4.200;2023-05-18T01:59:48;12.85;;;4.20;;
24157;SDS011;12316;50.904;4.200;2023-05-18T02:02:15;13.88;;;4.47;;
24157;SDS011;12316;50.904;4.200;2023-05-18T02:04:41;12.10;;;4.25;;
24157;SDS011;12316;50.904;4.200;2023-05-18T02:07:07;13.43;;;4.78;;
24157;SDS011;12316;50.904;4.200;2023-05-18T02:09:33;13.27;;;4.43;;
24157;SDS011;12316;50.904;4.200;2023-05-18T02:11:58;14.30;;;4.63;;
24157;SDS011;12316;50.904;4.200;2023-05-18T02:14:24;14.90;;;5.13;;
24157;SDS011;12316;50.904;4.200;2023-05-18T02:16:50;14.57;;;4.88;;
24157;SDS011;12316;50.904;4.200;2023-05-18T02:19:17;11.50;;;4.78;;
24157;SDS011;12316;50.904;4.200;2023-05-18T02:21:44;11.93;;;4.78;;
24157;SDS011;12316;50.904;4.200;2023-05-18T02:24:09;12.82;;;4.53;;
24157;SDS011;12316;50.904;4.200;2023-05-18T02:26:36;12.95;;;4.60;;
24157;SDS011;12316;50.904;4.200;2023-05-18T02:29:03;11.88;;;4.78;;
24157;SDS011;12316;50.904;4.200;2023-05-18T02:31:35;11.45;;;5.03;;
24157;SDS011;12316;50.904;4.200;2023-05-18T02:34:05;17.00;;;4.63;;
24157;SDS011;12316;50.904;4.200;2023-05-18T02:36:31;14.18;;;5.25;;
24157;SDS011;12316;50.904;4.200;2023-05-18T02:39:06;11.75;;;4.78;;
24157;SDS011;12316;50.904;4.200;2023-05-18T02:41:35;14.63;;;4.88;;
24157;SDS011;12316;50.904;4.200;2023-05-18T02:44:02;11.02;;;4.55;;
24157;SDS011;12316;50.904;4.200;2023-05-18T02:46:28;17.23;;;5.10;;
24157;SDS011;12316;50.904;4.200;2023-05-18T02:48:54;13.27;;;5.10;;
24157;SDS011;12316;50.904;4.200;2023-05-18T02:51:19;13.82;;;4.93;;
24157;SDS011;12316;50.904;4.200;2023-05-18T02:53:46;12.80;;;4.50;;
24157;SDS011;12316;50.904;4.200;2023-05-18T02:56:12;11.20;;;4.80;;
24157;SDS011;12316;50.904;4.200;2023-05-18T02:58:38;9.55;;;4.88;;
24157;SDS011;12316;50.904;4.200;2023-05-18T03:01:03;12.50;;;5.15;;
24157;SDS011;12316;50.904;4.200;2023-05-18T03:03:32;14.65;;;5.88;;
24157;SDS011;12316;50.904;4.200;2023-05-18T03:05:59;17.83;;;5.28;;
24157;SDS011;12316;50.904;4.200;2023-05-18T03:08:26;15.02;;;5.55;;
24157;SDS011;12316;50.904;4.200;2023-05-18T03:10:52;15.50;;;5.25;;
24157;SDS011;12316;50.904;4.200;2023-05-18T03:13:19;10.38;;;4.80;;
24157;SDS011;12316;50.904;4.200;2023-05-18T03:15:45;14.55;;;4.88;;
24157;SDS011;12316;50.904;4.200;2023-05-18T03:18:11;11.68;;;4.93;;
24157;SDS011;12316;50.904;4.200;2023-05-18T03:20:36;13.75;;;5.03;;
24157;SDS011;12316;50.904;4.200;2023-05-18T03:23:02;14.75;;;5.20;;
24157;SDS011;12316;50.904;4.200;2023-05-18T03:25:28;11.45;;;4.97;;
24157;SDS011;12316;50.904;4.200;2023-05-18T03:27:56;13.80;;;5.18;;
24157;SDS011;12316;50.904;4.200;2023-05-18T03:30:25;13.05;;;5.32;;
24157;SDS011;12316;50.904;4.200;2023-05-18T03:32:51;14.88;;;5.47;;
24157;SDS011;12316;50.904;4.200;2023-05-18T03:35:17;13.95;;;6.10;;
24157;SDS011;12316;50.904;4.200;2023-05-18T03:37:42;16.10;;;5.95;;
24157;SDS011;12316;50.904;4.200;2023-05-18T03:40:12;13.15;;;5.20;;
24157;SDS011;12316;50.904;4.200;2023-05-18T03:42:40;15.90;;;5.57;;
24157;SDS011;12316;50.904;4.200;2023-05-18T03:45:07;17.00;;;5.80;;
24157;SDS011;12316;50.904;4.200;2023-05-18T03:47:33;14.00;;;5.15;;
24157;SDS011;12316;50.904;4.200;2023-05-18T03:50:00;14.13;;;5.47;;
24157;SDS011;12316;50.904;4.200;2023-05-18T03:52:25;16.00;;;5.40;;
24157;SDS011;12316;50.904;4.200;2023-05-18T03:54:54;15.45;;;5.68;;
24157;SDS011;12316;50.904;4.200;2023-05-18T03:57:20;17.88;;;5.68;;
24157;SDS011;12316;50.904;4.200;2023-05-18T03:59:46;11.77;;;5.50;;
24157;SDS011;12316;50.904;4.200;2023-05-18T04:02:11;15.20;;;5.57;;
24157;SDS011;12316;50.904;4.200;2023-05-18T04:04:38;14.93;;;6.20;;
24157;SDS011;12316;50.904;4.200;2023-05-18T04:07:10;14.80;;;5.60;;
24157;SDS011;12316;50.904;4.200;2023-05-18T04:09:36;14.70;;;5.30;;
24157;SDS011;12316;50.904;4.200;2023-05-18T04:12:03;15.07;;;6.00;;
24157;SDS011;12316;50.904;4.200;2023-05-18T04:14:29;16.63;;;5.75;;
24157;SDS011;12316;50.904;4.200;2023-05-18T04:16:57;14.07;;;5.10;;
24157;SDS011;12316;50.904;4.200;2023-05-18T04:19:29;13.33;;;5.70;;
24157;SDS011;12316;50.904;4.200;2023-05-18T04:21:57;13.77;;;5.78;;
24157;SDS011;12316;50.904;4.200;2023-05-18T04:24:23;16.60;;;5.72;;
24157;SDS011;12316;50.904;4.200;2023-05-18T04:26:50;11.45;;;5.28;;
24157;SDS011;12316;50.904;4.200;2023-05-18T04:29:16;11.95;;;5.38;;
24157;SDS011;12316;50.904;4.200;2023-05-18T04:31:42;13.45;;;4.95;;
24157;SDS011;12316;50.904;4.200;2023-05-18T04:34:11;12.32;;;5.25;;
24157;SDS011;12316;50.904;4.200;2023-05-18T04:36:37;11.10;;;5.05;;
24157;SDS011;12316;50.904;4.200;2023-05-18T04:39:09;13.52;;;5.32;;
24157;SDS011;12316;50.904;4.200;2023-05-18T04:41:35;19.88;;;5.78;;
24157;SDS011;12316;50.904;4.200;2023-05-18T04:44:01;14.40;;;5.43;;
24157;SDS011;12316;50.904;4.200;2023-05-18T04:46:28;14.80;;;5.65;;
24157;SDS011;12316;50.904;4.200;2023-05-18T04:48:54;13.43;;;5.32;;
24157;SDS011;12316;50.904;4.200;2023-05-18T04:51:22;12.32;;;4.57;;
24157;SDS011;12316;50.904;4.200;2023-05-18T04:53:48;12.57;;;4.97;;
24157;SDS011;12316;50.904;4.200;2023-05-18T04:56:15;11.88;;;4.78;;
24157;SDS011;12316;50.904;4.200;2023-05-18T04:58:41;9.70;;;4.50;;
24157;SDS011;12316;50.904;4.200;2023-05-18T05:01:10;16.17;;;5.47;;
24157;SDS011;12316;50.904;4.200;2023-05-18T05:03:39;10.55;;;4.78;;
24157;SDS011;12316;50.904;4.200;2023-05-18T05:06:06;11.50;;;4.75;;
24157;SDS011;12316;50.904;4.200;2023-05-18T05:08:33;14.88;;;5.03;;
24157;SDS011;12316;50.904;4.200;2023-05-18T05:10:59;11.10;;;5.07;;
24157;SDS011;12316;50.904;4.200;2023-05-18T05:13:25;13.38;;;5.28;;
24157;SDS011;12316;50.904;4.200;2023-05-18T05:15:51;11.50;;;4.70;;
24157;SDS011;12316;50.904;4.200;2023-05-18T05:18:16;13.85;;;5.30;;
24157;SDS011;12316;50.904;4.200;2023-05-18T05:20:42;16.50;;;6.25;;
24157;SDS011;12316;50.904;4.200;2023-05-18T05:23:08;14.35;;;5.60;;
24157;SDS011;12316;50.904;4.200;2023-05-18T05:25:33;13.10;;;5.13;;
24157;SDS011;12316;50.904;4.200;2023-05-18T05:27:59;13.88;;;5.10;;
24157;SDS011;12316;50.904;4.200;2023-05-18T05:30:25;13.30;;;4.97;;
24157;SDS011;12316;50.904;4.200;2023-05-18T05:32:51;10.65;;;4.95;;
24157;SDS011;12316;50.904;4.200;2023-05-18T05:35:16;12.35;;;5.10;;
24157;SDS011;12316;50.904;4.200;2023-05-18T05:37:42;17.40;;;5.32;;
24157;SDS011;12316;50.904;4.200;2023-05-18T05:40:08;15.80;;;5.15;;
24157;SDS011;12316;50.904;4.200;2023-05-18T05:42:34;10.82;;;4.90;;
24157;SDS011;12316;50.904;4.200;2023-05-18T05:45:00;16.15;;;5.35;;
24157;SDS011;12316;50.904;4.200;2023-05-18T05:47:26;13.23;;;5.10;;
24157;SDS011;12316;50.904;4.200;2023-05-18T05:49:52;11.93;;;5.03;;
24157;SDS011;12316;50.904;4.200;2023-05-18T05:52:17;14.00;;;5.47;;
24157;SDS011;12316;50.904;4.200;2023-05-18T05:54:43;14.32;;;5.57;;
24157;SDS011;12316;50.904;4.200;2023-05-18T05:57:09;12.98;;;5.60;;
24157;SDS011;12316;50.904;4.200;2023-05-18T05:59:34;12.73;;;5.00;;
24157;SDS011;12316;50.904;4.200;2023-05-18T06:02:00;12.60;;;5.53;;
24157;SDS011;12316;50.904;4.200;2023-05-18T06:04:26;13.55;;;5.28;;
24157;SDS011;12316;50.904;4.200;2023-05-18T06:06:52;11.32;;;5.07;;
24157;SDS011;12316;50.904;4.200;2023-05-18T06:09:18;12.77;;;4.97;;
24157;SDS011;12316;50.904;4.200;2023-05-18T06:11:44;9.77;;;4.80;;
24157;SDS011;12316;50.904;4.200;2023-05-18T06:14:09;12.80;;;4.57;;
24157;SDS011;12316;50.904;4.200;2023-05-18T06:16:36;10.55;;;4.05;;
24157;SDS011;12316;50.904;4.200;2023-05-18T06:19:02;14.50;;;4.70;;
24157;SDS011;12316;50.904;4.200;2023-05-18T06:21:27;11.45;;;4.93;;
24157;SDS011;12316;50.904;4.200;2023-05-18T06:23:53;13.77;;;4.60;;
24157;SDS011;12316;50.904;4.200;2023-05-18T06:26:19;15.02;;;5.20;;
24157;SDS011;12316;50.904;4.200;2023-05-18T06:28:46;11.18;;;5.18;;
24157;SDS011;12316;50.904;4.200;2023-05-18T06:31:12;14.25;;;5.07;;
24157;SDS011;12316;50.904;4.200;2023-05-18T06:33:38;11.20;;;4.70;;
24157;SDS011;12316;50.904;4.200;2023-05-18T06:36:05;13.00;;;5.15;;
24157;SDS011;12316;50.904;4.200;2023-05-18T06:38:30;12.55;;;4.90;;
24157;SDS011;12316;50.904;4.200;2023-05-18T06:40:56;11.23;;;4.60;;
24157;SDS011;12316;50.904;4.200;2023-05-18T06:43:22;10.52;;;4.72;;
24157;SDS011;12316;50.904;4.200;2023-05-18T06:45:50;15.07;;;5.28;;
24157;SDS011;12316;50.904;4.200;2023-05-18T06:48:16;11.00;;;5.35;;
24157;SDS011;12316;50.904;4.200;2023-05-18T06:50:42;13.25;;;5.20;;
24157;SDS011;12316;50.904;4.200;2023-05-18T06:53:07;14.80;;;5.38;;
24157;SDS011;12316;50.904;4.200;2023-05-18T06:55:33;11.50;;;4.97;;
24157;SDS011;12316;50.904;4.200;2023-05-18T06:57:59;10.98;;;5.13;;
24157;SDS011;12316;50.904;4.200;2023-05-18T07:00:26;14.25;;;5.32;;
24157;SDS011;12316;50.904;4.200;2023-05-18T07:02:52;14.43;;;5.75;;
24157;SDS011;12316;50.904;4.200;2023-05-18T07:05:17;11.88;;;5.60;;
24157;SDS011;12316;50.904;4.200;2023-05-18T07:07:43;12.65;;;5.72;;
24157;SDS011;12316;50.904;4.200;2023-05-18T07:10:09;13.55;;;5.97;;
24157;SDS011;12316;50.904;4.200;2023-05-18T07:12:35;15.43;;;6.05;;
24157;SDS011;12316;50.904;4.200;2023-05-18T07:15:01;12.02;;;5.80;;
24157;SDS011;12316;50.904;4.200;2023-05-18T07:17:29;12.57;;;5.85;;
24157;SDS011;12316;50.904;4.200;2023-05-18T07:19:55;10.38;;;5.88;;
24157;SDS011;12316;50.904;4.200;2023-05-18T07:22:20;13.50;;;5.57;;
24157;SDS011;12316;50.904;4.200;2023-05-18T07:24:46;11.32;;;5.80;;
24157;SDS011;12316;50.904;4.200;2023-05-18T07:27:12;15.52;;;6.18;;
24157;SDS011;12316;50.904;4.200;2023-05-18T07:29:37;12.15;;;6.03;;
24157;SDS011;12316;50.904;4.200;2023-05-18T07:32:04;9.45;;;5.80;;
24157;SDS011;12316;50.904;4.200;2023-05-18T07:34:30;14.95;;;5.93;;
24157;SDS011;12316;50.904;4.200;2023-05-18T07:36:56;11.85;;;5.80;;
24157;SDS011;12316;50.904;4.200;2023-05-18T07:39:21;13.02;;;6.07;;
24157;SDS011;12316;50.904;4.200;2023-05-18T07:41:52;15.88;;;6.40;;
24157;SDS011;12316;50.904;4.200;2023-05-18T07:44:18;16.92;;;6.43;;
24157;SDS011;12316;50.904;4.200;2023-05-18T07:46:44;11.27;;;5.85;;
24157;SDS011;12316;50.904;4.200;2023-05-18T07:49:11;14.82;;;6.38;;
24157;SDS011;12316;50.904;4.200;2023-05-18T07:51:37;14.05;;;6.30;;
24157;SDS011;12316;50.904;4.200;2023-05-18T07:54:03;14.90;;;6.78;;
24157;SDS011;12316;50.904;4.200;2023-05-18T07:56:29;14.57;;;6.70;;
24157;SDS011;12316;50.904;4.200;2023-05-18T07:58:55;14.13;;;6.32;;
24157;SDS011;12316;50.904;4.200;2023-05-18T08:01:21;16.95;;;6.80;;
24157;SDS011;12316;50.904;4.200;2023-05-18T08:03:51;13.93;;;6.32;;
24157;SDS011;12316;50.904;4.200;2023-05-18T08:06:17;12.98;;;6.20;;
24157;SDS011;12316;50.904;4.200;2023-05-18T08:08:43;11.50;;;6.47;;
24157;SDS011;12316;50.904;4.200;2023-05-18T08:11:09;13.25;;;6.88;;
24157;SDS011;12316;50.904;4.200;2023-05-18T08:13:34;13.40;;;6.40;;
24157;SDS011;12316;50.904;4.200;2023-05-18T08:16:00;14.95;;;6.47;;
24157;SDS011;12316;50.904;4.200;2023-05-18T08:18:26;16.23;;;6.47;;
24157;SDS011;12316;50.904;4.200;2023-05-18T08:20:51;17.08;;;6.32;;
24157;SDS011;12316;50.904;4.200;2023-05-18T08:23:18;16.58;;;6.88;;
24157;SDS011;12316;50.904;4.200;2023-05-18T08:25:44;15.82;;;6.45;;
24157;SDS011;12316;50.904;4.200;2023-05-18T08:28:10;13.52;;;6.60;;
24157;SDS011;12316;50.904;4.200;2023-05-18T08:30:35;11.90;;;6.63;;
24157;SDS011;12316;50.904;4.200;2023-05-18T08:33:01;13.50;;;6.75;;
24157;SDS011;12316;50.904;4.200;2023-05-18T08:35:27;14.35;;;7.28;;
24157;SDS011;12316;50.904;4.200;2023-05-18T08:37:53;15.23;;;6.50;;
24157;SDS011;12316;50.904;4.200;2023-05-18T08:40:19;16.00;;;6.70;;
24157;SDS011;12316;50.904;4.200;2023-05-18T08:45:31;12.05;;;6.68;;
24157;SDS011;12316;50.904;4.200;2023-05-18T08:48:18;12.02;;;6.35;;
24157;SDS011;12316;50.904;4.200;2023-05-18T08:50:46;18.80;;;6.95;;
24157;SDS011;12316;50.904;4.200;2023-05-18T08:53:15;16.70;;;7.20;;
24157;SDS011;12316;50.904;4.200;2023-05-18T08:55:42;16.05;;;6.75;;
24157;SDS011;12316;50.904;4.200;2023-05-18T08:58:10;13.75;;;6.03;;
24157;SDS011;12316;50.904;4.200;2023-05-18T09:00:41;14.52;;;6.03;;
24157;SDS011;12316;50.904;4.200;2023-05-18T09:03:07;11.52;;;5.68;;
24157;SDS011;12316;50.904;4.200;2023-05-18T09:05:33;15.02;;;6.10;;
24157;SDS011;12316;50.904;4.200;2023-05-18T09:07:59;13.50;;;6.43;;
24157;SDS011;12316;50.904;4.200;2023-05-18T09:10:25;17.67;;;6.22;;
24157;SDS011;12316;50.904;4.200;2023-05-18T09:12:50;11.73;;;5.93;;
24157;SDS011;12316;50.904;4.200;2023-05-18T09:15:18;15.20;;;6.47;;
24157;SDS011;12316;50.904;4.200;2023-05-18T09:17:45;13.65;;;6.10;;
24157;SDS011;12316;50.904;4.200;2023-05-18T09:20:11;12.27;;;5.80;;
24157;SDS011;12316;50.904;4.200;2023-05-18T09:22:37;17.63;;;6.05;;
24157;SDS011;12316;50.904;4.200;2023-05-18T09:25:09;13.10;;;5.18;;
24157;SDS011;12316;50.904;4.200;2023-05-18T09:27:35;13.98;;;5.78;;
24157;SDS011;12316;50.904;4.200;2023-05-18T09:30:02;11.18;;;5.85;;
24157;SDS011;12316;50.904;4.200;2023-05-18T09:32:29;14.48;;;5.68;;
24157;SDS011;12316;50.904;4.200;2023-05-18T09:35:06;13.48;;;4.55;;
24157;SDS011;12316;50.904;4.200;2023-05-18T09:37:33;9.43;;;4.10;;
24157;SDS011;12316;50.904;4.200;2023-05-18T09:40:03;10.75;;;4.10;;
24157;SDS011;12316;50.904;4.200;2023-05-18T09:42:42;13.50;;;4.57;;
24157;SDS011;12316;50.904;4.200;2023-05-18T09:45:16;11.55;;;5.07;;
24157;SDS011;12316;50.904;4.200;2023-05-18T09:47:48;10.30;;;4.20;;
24157;SDS011;12316;50.904;4.200;2023-05-18T09:50:17;10.98;;;3.58;;
24157;SDS011;12316;50.904;4.200;2023-05-18T09:52:44;11.10;;;4.78;;
24157;SDS011;12316;50.904;4.200;2023-05-18T09:55:11;15.20;;;4.55;;
24157;SDS011;12316;50.904;4.200;2023-05-18T09:57:38;9.60;;;4.00;;
24157;SDS011;12316;50.904;4.200;2023-05-18T10:00:05;12.38;;;4.05;;
24157;SDS011;12316;50.904;4.200;2023-05-18T10:02:42;11.50;;;4.30;;
24157;SDS011;12316;50.904;4.200;2023-05-18T10:05:22;11.45;;;4.20;;
24157;SDS011;12316;50.904;4.200;2023-05-18T10:07:55;14.82;;;4.00;;
24157;SDS011;12316;50.904;4.200;2023-05-18T10:10:21;8.85;;;3.50;;
24157;SDS011;12316;50.904;4.200;2023-05-18T10:12:54;10.43;;;3.70;;
24157;SDS011;12316;50.904;4.200;2023-05-18T10:15:22;11.32;;;3.65;;
24157;SDS011;12316;50.904;4.200;2023-05-18T10:17:49;11.45;;;3.75;;
24157;SDS011;12316;50.904;4.200;2023-05-18T10:20:19;11.10;;;3.80;;
24157;SDS011;12316;50.904;4.200;2023-05-18T10:22:48;10.40;;;4.22;;
24157;SDS011;12316;50.904;4.200;2023-05-18T10:25:18;11.80;;;4.30;;
24157;SDS011;12316;50.904;4.200;2023-05-18T10:27:45;11.75;;;4.43;;
24157;SDS011;12316;50.904;4.200;2023-05-18T10:30:13;8.75;;;4.30;;
24157;SDS011;12316;50.904;4.200;2023-05-18T10:32:41;10.73;;;4.72;;
24157;SDS011;12316;50.904;4.200;2023-05-18T10:35:07;9.95;;;4.40;;
24157;SDS011;12316;50.904;4.200;2023-05-18T10:37:34;12.88;;;4.18;;
24157;SDS011;12316;50.904;4.200;2023-05-18T10:40:03;8.95;;;4.05;;
24157;SDS011;12316;50.904;4.200;2023-05-18T10:42:33;14.07;;;4.65;;
24157;SDS011;12316;50.904;4.200;2023-05-18T10:44:59;7.47;;;3.88;;
24157;SDS011;12316;50.904;4.200;2023-05-18T10:47:26;12.63;;;4.25;;
24157;SDS011;12316;50.904;4.200;2023-05-18T10:49:52;10.52;;;4.32;;
24157;SDS011;12316;50.904;4.200;2023-05-18T10:52:18;15.07;;;4.78;;
24157;SDS011;12316;50.904;4.200;2023-05-18T10:54:46;11.00;;;4.45;;
24157;SDS011;12316;50.904;4.200;2023-05-18T10:57:14;10.40;;;4.10;;
24157;SDS011;12316;50.904;4.200;2023-05-18T10:59:42;9.13;;;4.15;;
24157;SDS011;12316;50.904;4.200;2023-05-18T11:02:11;7.38;;;3.80;;
24157;SDS011;12316;50.904;4.200;2023-05-18T11:07:10;8.88;;;4.15;;
24157;SDS011;12316;50.904;4.200;2023-05-18T11:09:39;8.85;;;4.13;;
24157;SDS011;12316;50.904;4.200;2023-05-18T11:12:10;9.85;;;4.60;;
24157;SDS011;12316;50.904;4.200;2023-05-18T11:14:38;11.80;;;4.72;;
24157;SDS011;12316;50.904;4.200;2023-05-18T11:22:41;9.60;;;4.50;;
24157;SDS011;12316;50.904;4.200;2023-05-18T11:25:46;12.30;;;4.80;;
24157;SDS011;12316;50.904;4.200;2023-05-18T11:28:07;10.75;;;4.80;;
24157;SDS011;12316;50.904;4.200;2023-05-18T11:38:52;9.77;;;4.32;;
24157;SDS011;12316;50.904;4.200;2023-05-18T11:41:27;13.48;;;4.32;;
24157;SDS011;12316;50.904;4.200;2023-05-18T11:49:23;9.90;;;4.10;;
24157;SDS011;12316;50.904;4.200;2023-05-18T11:54:38;8.80;;;4.22;;
24157;SDS011;12316;50.904;4.200;2023-05-18T11:57:14;11.48;;;4.53;;
24157;SDS011;12316;50.904;4.200;2023-05-18T11:59:54;11.77;;;5.00;;
24157;SDS011;12316;50.904;4.200;2023-05-18T12:02:24;12.43;;;4.53;;
24157;SDS011;12316;50.904;4.200;2023-05-18T12:05:00;9.00;;;4.75;;
24157;SDS011;12316;50.904;4.200;2023-05-18T12:07:27;11.05;;;4.80;;
24157;SDS011;12316;50.904;4.200;2023-05-18T12:10:01;12.10;;;4.57;;
24157;SDS011;12316;50.904;4.200;2023-05-18T12:12:38;8.70;;;4.85;;
24157;SDS011;12316;50.904;4.200;2023-05-18T12:15:05;10.50;;;4.80;;
24157;SDS011;12316;50.904;4.200;2023-05-18T12:20:14;12.25;;;5.43;;
24157;SDS011;12316;50.904;4.200;2023-05-18T12:22:46;10.48;;;5.75;;
24157;SDS011;12316;50.904;4.200;2023-05-18T12:25:15;11.82;;;5.75;;
24157;SDS011;12316;50.904;4.200;2023-05-18T12:27:42;14.15;;;6.10;;
24157;SDS011;12316;50.904;4.200;2023-05-18T12:30:09;11.15;;;5.65;;
24157;SDS011;12316;50.904;4.200;2023-05-18T12:32:38;11.43;;;5.47;;
24157;SDS011;12316;50.904;4.200;2023-05-18T12:35:12;13.55;;;5.85;;
24157;SDS011;12316;50.904;4.200;2023-05-18T12:37:43;10.90;;;5.97;;
24157;SDS011;12316;50.904;4.200;2023-05-18T12:40:14;10.18;;;5.38;;
24157;SDS011;12316;50.904;4.200;2023-05-18T12:42:53;12.27;;;5.28;;
24157;SDS011;12316;50.904;4.200;2023-05-18T12:45:27;12.80;;;5.68;;
24157;SDS011;12316;50.904;4.200;2023-05-18T12:48:07;10.75;;;5.80;;
24157;SDS011;12316;50.904;4.200;2023-05-18T12:50:35;10.40;;;5.57;;
24157;SDS011;12316;50.904;4.200;2023-05-18T12:53:02;12.43;;;5.35;;
24157;SDS011;12316;50.904;4.200;2023-05-18T12:55:29;11.90;;;5.63;;
24157;SDS011;12316;50.904;4.200;2023-05-18T12:58:02;10.73;;;5.18;;
24157;SDS011;12316;50.904;4.200;2023-05-18T13:00:33;12.48;;;5.65;;
24157;SDS011;12316;50.904;4.200;2023-05-18T13:03:06;15.45;;;5.93;;
24157;SDS011;12316;50.904;4.200;2023-05-18T13:05:32;17.05;;;6.25;;
24157;SDS011;12316;50.904;4.200;2023-05-18T13:07:58;11.82;;;5.43;;
24157;SDS011;12316;50.904;4.200;2023-05-18T13:10:24;13.05;;;5.82;;
24157;SDS011;12316;50.904;4.200;2023-05-18T13:12:56;9.43;;;5.18;;
24157;SDS011;12316;50.904;4.200;2023-05-18T13:15:37;13.27;;;5.37;;
24157;SDS011;12316;50.904;4.200;2023-05-18T13:18:04;12.38;;;5.45;;
24157;SDS011;12316;50.904;4.200;2023-05-18T13:20:48;11.82;;;5.38;;
24157;SDS011;12316;50.904;4.200;2023-05-18T13:23:16;11.90;;;5.45;;
24157;SDS011;12316;50.904;4.200;2023-05-18T13:25:43;11.93;;;5.38;;
24157;SDS011;12316;50.904;4.200;2023-05-18T13:28:09;17.58;;;5.00;;
24157;SDS011;12316;50.904;4.200;2023-05-18T13:30:36;9.90;;;4.60;;
24157;SDS011;12316;50.904;4.200;2023-05-18T13:33:04;13.55;;;4.95;;
24157;SDS011;12316;50.904;4.200;2023-05-18T13:35:32;16.13;;;5.13;;
24157;SDS011;12316;50.904;4.200;2023-05-18T13:37:59;9.50;;;5.38;;
24157;SDS011;12316;50.904;4.200;2023-05-18T13:40:25;10.88;;;5.25;;
24157;SDS011;12316;50.904;4.200;2023-05-18T13:42:51;10.98;;;5.90;;
24157;SDS011;12316;50.904;4.200;2023-05-18T13:45:17;12.30;;;4.80;;
24157;SDS011;12316;50.904;4.200;2023-05-18T13:47:45;11.77;;;4.95;;
24157;SDS011;12316;50.904;4.200;2023-05-18T13:50:14;11.90;;;5.40;;
24157;SDS011;12316;50.904;4.200;2023-05-18T13:52:40;15.18;;;7.63;;
24157;SDS011;12316;50.904;4.200;2023-05-18T13:55:06;14.35;;;7.80;;
24157;SDS011;12316;50.904;4.200;2023-05-18T13:57:32;10.07;;;4.80;;
24157;SDS011;12316;50.904;4.200;2023-05-18T13:59:58;10.63;;;4.65;;
24157;SDS011;12316;50.904;4.200;2023-05-18T14:02:34;10.60;;;5.18;;
24157;SDS011;12316;50.904;4.200;2023-05-18T14:05:01;11.02;;;4.82;;
24157;SDS011;12316;50.904;4.200;2023-05-18T14:07:28;10.75;;;4.82;;
24157;SDS011;12316;50.904;4.200;2023-05-18T14:09:54;9.95;;;5.03;;
24157;SDS011;12316;50.904;4.200;2023-05-18T14:12:19;9.95;;;4.82;;
24157;SDS011;12316;50.904;4.200;2023-05-18T14:14:45;10.38;;;4.97;;
24157;SDS011;12316;50.904;4.200;2023-05-18T14:17:10;14.82;;;5.22;;
24157;SDS011;12316;50.904;4.200;2023-05-18T14:19:37;13.48;;;5.13;;
24157;SDS011;12316;50.904;4.200;2023-05-18T14:22:03;15.95;;;5.07;;
24157;SDS011;12316;50.904;4.200;2023-05-18T14:24:29;10.43;;;4.80;;
24157;SDS011;12316;50.904;4.200;2023-05-18T14:26:55;11.55;;;5.00;;
24157;SDS011;12316;50.904;4.200;2023-05-18T14:29:21;12.80;;;4.88;;
24157;SDS011;12316;50.904;4.200;2023-05-18T14:31:46;13.10;;;4.90;;
24157;SDS011;12316;50.904;4.200;2023-05-18T14:34:12;11.40;;;4.35;;
24157;SDS011;12316;50.904;4.200;2023-05-18T14:36:38;10.23;;;4.10;;
24157;SDS011;12316;50.904;4.200;2023-05-18T14:39:03;12.90;;;4.20;;
24157;SDS011;12316;50.904;4.200;2023-05-18T14:41:29;10.40;;;4.55;;
24157;SDS011;12316;50.904;4.200;2023-05-18T14:43:55;13.23;;;4.40;;
24157;SDS011;12316;50.904;4.200;2023-05-18T14:46:21;11.30;;;4.65;;
24157;SDS011;12316;50.904;4.200;2023-05-18T14:48:46;6.97;;;4.20;;
24157;SDS011;12316;50.904;4.200;2023-05-18T14:51:12;9.82;;;4.28;;
24157;SDS011;12316;50.904;4.200;2023-05-18T14:53:39;12.05;;;4.22;;
24157;SDS011;12316;50.904;4.200;2023-05-18T14:56:05;9.98;;;4.00;;
24157;SDS011;12316;50.904;4.200;2023-05-18T14:58:34;12.25;;;4.40;;
24157;SDS011;12316;50.904;4.200;2023-05-18T15:01:00;11.93;;;4.30;;
24157;SDS011;12316;50.904;4.200;2023-05-18T15:03:26;11.65;;;4.10;;
24157;SDS011;12316;50.904;4.200;2023-05-18T15:05:53;11.88;;;4.38;;
24157;SDS011;12316;50.904;4.200;2023-05-18T15:08:18;11.45;;;4.70;;
24157;SDS011;12316;50.904;4.200;2023-05-18T15:10:44;8.30;;;3.90;;
24157;SDS011;12316;50.904;4.200;2023-05-18T15:13:09;10.02;;;4.47;;
24157;SDS011;12316;50.904;4.200;2023-05-18T15:15:35;9.07;;;4.63;;
24157;SDS011;12316;50.904;4.200;2023-05-18T15:18:01;10.05;;;4.13;;
24157;SDS011;12316;50.904;4.200;2023-05-18T15:20:26;11.75;;;4.72;;